sensor_id;sensor_type;location;lat;lon;timestamp;pressure;altitude;pressure_sealevel;temperature;humidity
46614;BME280;32338;50.430;6.806;2023-04-15T00:01:53;65548.31;;;1.20;100.00
46614;BME280;32338;50.430;6.806;2023-04-15T00:04:20;65551.22;;;1.18;100.00
46614;BME280;32338;50.430;6.806;2023-04-15T00:06:50;65543.84;;;1.16;100.00
46614;BME280;32338;50.430;6.806;2023-04-15T00:09:18;65546.75;;;1.13;100.00
46614;BME280;32338;50.430;6.806;2023-04-15T00:11:44;65541.19;;;1.08;100.00
46614;BME280;32338;50.430;6.806;2023-04-15T00:14:11;65546.53;;;1.11;100.00
46614;BME280;32338;50.430;6.806;2023-04-15T00:16:38;65544.53;;;1.11;100.00
46614;BME280;32338;50.430;6.806;2023-04-15T00:19:04;65540.84;;;1.10;100.00
46614;BME280;32338;50.430;6.806;2023-04-15T00:21:31;65533.34;;;1.01;100.00
46614;BME280;32338;50.430;6.806;2023-04-15T00:23:59;65531.13;;;0.99;100.00
46614;BME280;32338;50.430;6.806;2023-04-15T00:26:26;65525.41;;;0.99;100.00
46614;BME280;32338;50.430;6.806;2023-04-15T00:28:52;65525.31;;;0.91;100.00
46614;BME280;32338;50.430;6.806;2023-04-15T00:31:19;65514.94;;;0.84;100.00
46614;BME280;32338;50.430;6.806;2023-04-15T00:33:46;65505.66;;;0.78;100.00
46614;BME280;32338;50.430;6.806;2023-04-15T00:36:12;65500.41;;;0.71;100.00
46614;BME280;32338;50.430;6.806;2023-04-15T00:38:39;65494.81;;;0.66;100.00
46614;BME280;32338;50.430;6.806;2023-04-15T00:41:08;65487.78;;;0.61;100.00
46614;BME280;32338;50.430;6.806;2023-04-15T00:43:35;65494.81;;;0.66;100.00
46614;BME280;32338;50.430;6.806;2023-04-15T00:46:03;65511.16;;;0.76;100.00
46614;BME280;32338;50.430;6.806;2023-04-15T00:48:31;65508.56;;;0.76;100.00
46614;BME280;32338;50.430;6.806;2023-04-15T00:50:58;65501.16;;;0.74;100.00
46614;BME280;32338;50.430;6.806;2023-04-15T00:53:24;65501.88;;;0.70;100.00
46614;BME280;32338;50.430;6.806;2023-04-15T00:55:51;65498.53;;;0.67;100.00
46614;BME280;32338;50.430;6.806;2023-04-15T00:58:19;65468.56;;;0.41;100.00
46614;BME280;32338;50.430;6.806;2023-04-15T01:00:46;65444.59;;;0.19;100.00
46614;BME280;32338;50.430;6.806;2023-04-15T01:03:13;65437.53;;;0.15;100.00
46614;BME280;32338;50.430;6.806;2023-04-15T01:05:40;65446.47;;;0.23;100.00
46614;BME280;32338;50.430;6.806;2023-04-15T01:08:07;65452.16;;;0.24;100.00
46614;BME280;32338;50.430;6.806;2023-04-15T01:10:34;65437.53;;;0.15;100.00
46614;BME280;32338;50.430;6.806;2023-04-15T01:13:01;65445.25;;;0.15;100.00
46614;BME280;32338;50.430;6.806;2023-04-15T01:15:29;65442.34;;;0.17;100.00
46614;BME280;32338;50.430;6.806;2023-04-15T01:17:57;65443.47;;;0.18;100.00
46614;BME280;32338;50.430;6.806;2023-04-15T01:20:24;65443.47;;;0.18;100.00
46614;BME280;32338;50.430;6.806;2023-04-15T01:22:53;65447.59;;;0.24;100.00
46614;BME280;32338;50.430;6.806;2023-04-15T01:25:28;65448.50;;;0.23;100.00
46614;BME280;32338;50.430;6.806;2023-04-15T01:27:57;65443.34;;;0.23;100.00
46614;BME280;32338;50.430;6.806;2023-04-15T01:30:24;65447.16;;;0.19;100.00
46614;BME280;32338;50.430;6.806;2023-04-15T01:32:51;65441.22;;;0.16;100.00
46614;BME280;32338;50.430;6.806;2023-04-15T01:35:17;65437.88;;;0.13;100.00
46614;BME280;32338;50.430;6.806;2023-04-15T01:37:44;65437.88;;;0.13;100.00
46614;BME280;32338;50.430;6.806;2023-04-15T01:40:12;65437.31;;;0.12;100.00
46614;BME280;32338;50.430;6.806;2023-04-15T01:42:41;65445.34;;;0.22;100.00
46614;BME280;32338;50.430;6.806;2023-04-15T01:45:08;65444.59;;;0.19;100.00
46614;BME280;32338;50.430;6.806;2023-04-15T01:47:35;65443.81;;;0.16;100.00
46614;BME280;32338;50.430;6.806;2023-04-15T01:50:01;65432.63;;;0.06;100.00
46614;BME280;32338;50.430;6.806;2023-04-15T01:52:28;65418.91;;;-0.05;100.00
46614;BME280;32338;50.430;6.806;2023-04-15T01:54:55;65420.03;;;-0.04;100.00
46614;BME280;32338;50.430;6.806;2023-04-15T01:57:21;65420.38;;;-0.06;100.00
46614;BME280;32338;50.430;6.806;2023-04-15T01:59:49;65417.78;;;-0.06;100.00
46614;BME280;32338;50.430;6.806;2023-04-15T02:02:16;65425.03;;;0.01;100.00
46614;BME280;32338;50.430;6.806;2023-04-15T02:04:42;65418.56;;;-0.03;100.00
46614;BME280;32338;50.430;6.806;2023-04-15T02:07:09;65415.75;;;-0.05;100.00
46614;BME280;32338;50.430;6.806;2023-04-15T02:09:36;65413.34;;;-0.10;100.00
46614;BME280;32338;50.430;6.806;2023-04-15T02:12:03;65405.50;;;-0.17;100.00
46614;BME280;32338;50.430;6.806;2023-04-15T02:14:29;65407.19;;;-0.15;100.00
46614;BME280;32338;50.430;6.806;2023-04-15T02:16:57;65408.84;;;-0.14;100.00
46614;BME280;32338;50.430;6.806;2023-04-15T02:19:31;65404.41;;;-0.18;100.00
46614;BME280;32338;50.430;6.806;2023-04-15T02:21:57;65403.06;;;-0.22;100.00
46614;BME280;32338;50.430;6.806;2023-04-15T02:24:26;65396.59;;;-0.25;100.00
46614;BME280;32338;50.430;6.806;2023-04-15T02:26:53;65396.38;;;-0.28;100.00
46614;BME280;32338;50.430;6.806;2023-04-15T02:29:20;65393.38;;;-0.33;100.00
46614;BME280;32338;50.430;6.806;2023-04-15T02:31:47;65379.84;;;-0.41;100.00
46614;BME280;32338;50.430;6.806;2023-04-15T02:34:15;65375.94;;;-0.44;100.00
46614;BME280;32338;50.430;6.806;2023-04-15T02:36:41;65377.28;;;-0.41;100.00
46614;BME280;32338;50.430;6.806;2023-04-15T02:39:08;65392.47;;;-0.31;100.00
46614;BME280;32338;50.430;6.806;2023-04-15T02:41:35;65392.13;;;-0.29;100.00
46614;BME280;32338;50.430;6.806;2023-04-15T02:44:02;65392.66;;;-0.29;100.00
46614;BME280;32338;50.430;6.806;2023-04-15T02:46:28;65379.72;;;-0.36;100.00
46614;BME280;32338;50.430;6.806;2023-04-15T02:48:55;65383.19;;;-0.38;100.00
46614;BME280;32338;50.430;6.806;2023-04-15T02:51:25;65387.44;;;-0.36;100.00
46614;BME280;32338;50.430;6.806;2023-04-15T02:53:51;65379.31;;;-0.41;100.00
46614;BME280;32338;50.430;6.806;2023-04-15T02:56:18;65386.47;;;-0.42;100.00
46614;BME280;32338;50.430;6.806;2023-04-15T02:58:45;65389.13;;;-0.35;100.00
46614;BME280;32338;50.430;6.806;2023-04-15T03:01:11;65379.50;;;-0.39;100.00
46614;BME280;32338;50.430;6.806;2023-04-15T03:03:38;65368.69;;;-0.51;100.00
46614;BME280;32338;50.430;6.806;2023-04-15T03:06:05;65369.81;;;-0.50;100.00
46614;BME280;32338;50.430;6.806;2023-04-15T03:08:34;65361.44;;;-0.58;100.00
46614;BME280;32338;50.430;6.806;2023-04-15T03:11:01;65351.19;;;-0.70;100.00
46614;BME280;32338;50.430;6.806;2023-04-15T03:13:27;65341.59;;;-0.74;100.00
46614;BME280;32338;50.430;6.806;2023-04-15T03:15:54;65339.13;;;-0.78;100.00
46614;BME280;32338;50.430;6.806;2023-04-15T03:18:21;65344.72;;;-0.73;100.00
46614;BME280;32338;50.430;6.806;2023-04-15T03:20:48;65342.47;;;-0.75;100.00
46614;BME280;32338;50.430;6.806;2023-04-15T03:23:14;65340.47;;;-0.75;100.00
46614;BME280;32338;50.430;6.806;2023-04-15T03:25:43;65343.94;;;-0.76;100.00
46614;BME280;32338;50.430;6.806;2023-04-15T03:28:10;65335.94;;;-0.86;100.00
46614;BME280;32338;50.430;6.806;2023-04-15T03:30:37;65330.00;;;-0.89;100.00
46614;BME280;32338;50.430;6.806;2023-04-15T03:33:03;65334.47;;;-0.85;100.00
46614;BME280;32338;50.430;6.806;2023-04-15T03:35:30;65338.16;;;-0.84;100.00
46614;BME280;32338;50.430;6.806;2023-04-15T03:37:57;65324.31;;;-0.90;100.00
46614;BME280;32338;50.430;6.806;2023-04-15T03:40:23;65320.88;;;-1.00;100.00
46614;BME280;32338;50.430;6.806;2023-04-15T03:42:51;65300.09;;;-1.15;100.00
46614;BME280;32338;50.430;6.806;2023-04-15T03:45:18;65294.88;;;-1.22;100.00
46614;BME280;32338;50.430;6.806;2023-04-15T03:47:44;65290.97;;;-1.25;100.00
46614;BME280;32338;50.430;6.806;2023-04-15T03:50:11;65292.88;;;-1.21;100.00
46614;BME280;32338;50.430;6.806;2023-04-15T03:52:37;65302.34;;;-1.12;100.00
46614;BME280;32338;50.430;6.806;2023-04-15T03:55:04;65300.31;;;-1.12;100.00
46614;BME280;32338;50.430;6.806;2023-04-15T03:57:31;65307.13;;;-1.10;100.00
46614;BME280;32338;50.430;6.806;2023-04-15T04:00:04;65303.22;;;-1.14;100.00
46614;BME280;32338;50.430;6.806;2023-04-15T04:02:31;65297.00;;;-1.15;100.00
46614;BME280;32338;50.430;6.806;2023-04-15T04:04:57;65303.00;;;-1.17;100.00
46614;BME280;32338;50.430;6.806;2023-04-15T04:07:24;65287.06;;;-1.29;100.00
46614;BME280;32338;50.430;6.806;2023-04-15T04:09:51;65300.81;;;-1.19;100.00
46614;BME280;32338;50.430;6.806;2023-04-15T04:12:17;65311.41;;;-1.09;100.00
46614;BME280;32338;50.430;6.806;2023-04-15T04:14:44;65312.38;;;-1.03;100.00
46614;BME280;32338;50.430;6.806;2023-04-15T04:17:12;65308.47;;;-1.07;100.00
46614;BME280;32338;50.430;6.806;2023-04-15T04:19:39;65298.44;;;-1.16;100.00
46614;BME280;32338;50.430;6.806;2023-04-15T04:22:05;65296.00;;;-1.21;100.00
46614;BME280;32338;50.430;6.806;2023-04-15T04:24:32;65289.63;;;-1.29;100.00
46614;BME280;32338;50.430;6.806;2023-04-15T04:26:58;65296.22;;;-1.18;100.00
46614;BME280;32338;50.430;6.806;2023-04-15T04:29:25;65299.91;;;-1.17;100.00
46614;BME280;32338;50.430;6.806;2023-04-15T04:31:52;65308.59;;;-1.11;100.00
46614;BME280;32338;50.430;6.806;2023-04-15T04:34:19;65305.69;;;-1.09;100.00
46614;BME280;32338;50.430;6.806;2023-04-15T04:36:46;65298.78;;;-1.18;100.00
46614;BME280;32338;50.430;6.806;2023-04-15T04:39:13;65296.78;;;-1.18;100.00
46614;BME280;32338;50.430;6.806;2023-04-15T04:41:39;65306.81;;;-1.08;100.00
46614;BME280;32338;50.430;6.806;2023-04-15T04:44:06;65315.72;;;-1.00;100.00
46614;BME280;32338;50.430;6.806;2023-04-15T04:46:32;65307.34;;;-1.08;100.00
46614;BME280;32338;50.430;6.806;2023-04-15T04:48:59;65303.22;;;-1.14;100.00
46614;BME280;32338;50.430;6.806;2023-04-15T04:51:27;65314.19;;;-1.06;100.00
46614;BME280;32338;50.430;6.806;2023-04-15T04:53:53;65313.50;;;-1.02;100.00
46614;BME280;32338;50.430;6.806;2023-04-15T04:56:20;65302.91;;;-1.12;100.00
46614;BME280;32338;50.430;6.806;2023-04-15T04:58:47;65299.56;;;-1.15;100.00
46614;BME280;32338;50.430;6.806;2023-04-15T05:01:14;65301.00;;;-1.16;100.00
46614;BME280;32338;50.430;6.806;2023-04-15T05:03:40;65308.81;;;-1.09;100.00
46614;BME280;32338;50.430;6.806;2023-04-15T05:06:07;65325.41;;;-0.89;100.00
46614;BME280;32338;50.430;6.806;2023-04-15T05:08:35;65341.38;;;-0.76;100.00
46614;BME280;32338;50.430;6.806;2023-04-15T05:11:02;65344.16;;;-0.74;100.00
46614;BME280;32338;50.430;6.806;2023-04-15T05:13:29;65328.53;;;-0.88;100.00
46614;BME280;32338;50.430;6.806;2023-04-15T05:15:55;65313.63;;;-1.07;100.00
46614;BME280;32338;50.430;6.806;2023-04-15T05:18:22;65309.59;;;-1.06;100.00
46614;BME280;32338;50.430;6.806;2023-04-15T05:20:48;65337.03;;;-0.85;100.00
46614;BME280;32338;50.430;6.806;2023-04-15T05:23:15;65356.00;;;-0.68;100.00
46614;BME280;32338;50.430;6.806;2023-04-15T05:25:44;65348.84;;;-0.67;100.00
46614;BME280;32338;50.430;6.806;2023-04-15T05:28:11;65339.69;;;-0.78;100.00
46614;BME280;32338;50.430;6.806;2023-04-15T05:30:38;65345.63;;;-0.75;100.00
46614;BME280;32338;50.430;6.806;2023-04-15T05:33:04;65351.63;;;-0.64;100.00
46614;BME280;32338;50.430;6.806;2023-04-15T05:35:31;65368.50;;;-0.54;100.00
46614;BME280;32338;50.430;6.806;2023-04-15T05:37:58;65386.88;;;-0.37;100.00
46614;BME280;32338;50.430;6.806;2023-04-15T05:40:24;65389.53;;;-0.29;100.00
46614;BME280;32338;50.430;6.806;2023-04-15T05:42:52;65399.59;;;-0.20;100.00
46614;BME280;32338;50.430;6.806;2023-04-15T05:45:19;65419.81;;;-0.06;100.00
46614;BME280;32338;50.430;6.806;2023-04-15T05:47:46;65427.28;;;0.03;100.00
46614;BME280;32338;50.430;6.806;2023-04-15T05:50:14;65439.88;;;0.12;100.00
46614;BME280;32338;50.430;6.806;2023-04-15T05:52:41;65437.19;;;0.17;100.00
46614;BME280;32338;50.430;6.806;2023-04-15T05:55:08;65453.06;;;0.22;100.00
46614;BME280;32338;50.430;6.806;2023-04-15T05:57:35;65458.75;;;0.35;100.00
46614;BME280;32338;50.430;6.806;2023-04-15T06:00:04;65479.31;;;0.46;100.00
46614;BME280;32338;50.430;6.806;2023-04-15T06:02:31;65484.75;;;0.56;100.00
46614;BME280;32338;50.430;6.806;2023-04-15T06:04:57;65494.25;;;0.65;100.00
46614;BME280;32338;50.430;6.806;2023-04-15T06:07:25;65503.75;;;0.74;100.00
46614;BME280;32338;50.430;6.806;2023-04-15T06:09:51;65518.28;;;0.87;100.00
46614;BME280;32338;50.430;6.806;2023-04-15T06:12:18;65531.81;;;0.95;100.00
46614;BME280;32338;50.430;6.806;2023-04-15T06:14:44;65530.72;;;0.94;100.00
46614;BME280;32338;50.430;6.806;2023-04-15T06:17:12;65524.97;;;0.93;100.00
46614;BME280;32338;50.430;6.806;2023-04-15T06:19:42;65535.16;;;0.98;100.00
46614;BME280;32338;50.430;6.806;2023-04-15T06:22:09;65530.34;;;0.96;100.00
46614;BME280;32338;50.430;6.806;2023-04-15T06:24:35;65527.22;;;0.95;100.00
46614;BME280;32338;50.430;6.806;2023-04-15T06:27:02;65524.28;;;0.97;100.00
46614;BME280;32338;50.430;6.806;2023-04-15T06:29:29;65527.78;;;0.96;100.00
46614;BME280;32338;50.430;6.806;2023-04-15T06:31:55;65537.25;;;1.05;100.00
46614;BME280;32338;50.430;6.806;2023-04-15T06:34:23;65549.00;;;1.16;100.00
46614;BME280;32338;50.430;6.806;2023-04-15T06:36:50;65551.78;;;1.18;100.00
46614;BME280;32338;50.430;6.806;2023-04-15T06:39:18;65559.63;;;1.25;100.00
46614;BME280;32338;50.430;6.806;2023-04-15T06:41:45;65554.59;;;1.21;100.00
46614;BME280;32338;50.430;6.806;2023-04-15T06:44:12;65569.66;;;1.35;100.00
46614;BME280;32338;50.430;6.806;2023-04-15T06:46:38;65574.13;;;1.39;100.00
46614;BME280;32338;50.430;6.806;2023-04-15T06:49:05;65578.03;;;1.42;100.00
46614;BME280;32338;50.430;6.806;2023-04-15T06:51:34;65575.25;;;1.40;100.00
46614;BME280;32338;50.430;6.806;2023-04-15T06:54:01;65573.38;;;1.36;100.00
46614;BME280;32338;50.430;6.806;2023-04-15T06:56:30;65577.50;;;1.42;100.00
46614;BME280;32338;50.430;6.806;2023-04-15T06:58:56;65585.13;;;1.47;100.00
46614;BME280;32338;50.430;6.806;2023-04-15T07:01:23;65586.78;;;1.48;100.00
46614;BME280;32338;50.430;6.806;2023-04-15T07:03:50;65585.88;;;1.50;100.00
46614;BME280;32338;50.430;6.806;2023-04-15T07:06:16;65587.75;;;1.54;100.00
46614;BME280;32338;50.430;6.806;2023-04-15T07:08:45;65602.63;;;1.65;100.00
46614;BME280;32338;50.430;6.806;2023-04-15T07:11:12;65625.91;;;1.84;100.00
46614;BME280;32338;50.430;6.806;2023-04-15T07:13:38;65624.44;;;1.85;100.00
46614;BME280;32338;50.430;6.806;2023-04-15T07:16:05;65632.25;;;1.92;100.00
46614;BME280;32338;50.430;6.806;2023-04-15T07:18:31;65643.44;;;2.03;100.00
46614;BME280;32338;50.430;6.806;2023-04-15T07:20:58;65654.06;;;2.13;100.00
46614;BME280;32338;50.430;6.806;2023-04-15T07:23:25;65667.28;;;2.22;100.00
46614;BME280;32338;50.430;6.806;2023-04-15T07:25:53;65684.50;;;2.43;100.00
46614;BME280;32338;50.430;6.806;2023-04-15T07:28:20;65707.44;;;2.64;100.00
46614;BME280;32338;50.430;6.806;2023-04-15T07:30:47;65741.91;;;2.94;100.00
46614;BME280;32338;50.430;6.806;2023-04-15T07:33:14;65744.16;;;2.96;100.00
46614;BME280;32338;50.430;6.806;2023-04-15T07:35:40;65754.22;;;3.05;100.00
46614;BME280;32338;50.430;6.806;2023-04-15T07:38:07;65767.31;;;3.19;100.00
46614;BME280;32338;50.430;6.806;2023-04-15T07:40:34;65775.47;;;3.24;100.00
46614;BME280;32338;50.430;6.806;2023-04-15T07:43:02;65788.13;;;3.34;100.00
46614;BME280;32338;50.430;6.806;2023-04-15T07:45:28;65790.59;;;3.38;100.00
46614;BME280;32338;50.430;6.806;2023-04-15T07:47:55;65802.34;;;3.49;100.00
46614;BME280;32338;50.430;6.806;2023-04-15T07:50:22;65808.84;;;3.53;100.00
46614;BME280;32338;50.430;6.806;2023-04-15T07:52:50;65815.56;;;3.59;100.00
46614;BME280;32338;50.430;6.806;2023-04-15T07:55:17;65823.63;;;3.69;100.00
46614;BME280;32338;50.430;6.806;2023-04-15T07:57:47;65837.84;;;3.84;100.00
46614;BME280;32338;50.430;6.806;2023-04-15T08:00:16;65853.50;;;3.99;100.00
46614;BME280;32338;50.430;6.806;2023-04-15T08:02:42;65872.75;;;4.19;100.00
46614;BME280;32338;50.430;6.806;2023-04-15T08:05:11;65917.94;;;4.58;100.00
46614;BME280;32338;50.430;6.806;2023-04-15T08:07:39;65930.63;;;4.67;100.00
46614;BME280;32338;50.430;6.806;2023-04-15T08:10:06;65949.56;;;4.90;100.00
46614;BME280;32338;50.430;6.806;2023-04-15T08:12:33;65994.69;;;5.22;100.00
46614;BME280;32338;50.430;6.806;2023-04-15T08:15:00;66007.44;;;5.38;100.00
46614;BME280;32338;50.430;6.806;2023-04-15T08:17:28;66027.28;;;5.59;100.00
46614;BME280;32338;50.430;6.806;2023-04-15T08:19:55;66060.72;;;5.87;100.00
46614;BME280;32338;50.430;6.806;2023-04-15T08:22:22;66087.69;;;6.12;100.00
46614;BME280;32338;50.430;6.806;2023-04-15T08:24:48;66112.03;;;6.37;100.00
46614;BME280;32338;50.430;6.806;2023-04-15T08:27:15;66136.75;;;6.59;100.00
46614;BME280;32338;50.430;6.806;2023-04-15T08:29:42;66160.69;;;6.79;100.00
46614;BME280;32338;50.430;6.806;2023-04-15T08:32:09;66168.19;;;6.88;100.00
46614;BME280;32338;50.430;6.806;2023-04-15T08:34:37;66190.09;;;7.08;100.00
46614;BME280;32338;50.430;6.806;2023-04-15T08:37:04;66218.19;;;7.34;100.00
46614;BME280;32338;50.430;6.806;2023-04-15T08:39:31;66247.75;;;7.59;100.00
46614;BME280;32338;50.430;6.806;2023-04-15T08:42:00;66259.00;;;7.69;100.00
46614;BME280;32338;50.430;6.806;2023-04-15T08:44:29;66274.72;;;7.84;100.00
46614;BME280;32338;50.430;6.806;2023-04-15T08:47:00;66305.66;;;8.12;100.00
46614;BME280;32338;50.430;6.806;2023-04-15T08:49:27;66308.25;;;8.12;100.00
46614;BME280;32338;50.430;6.806;2023-04-15T08:51:57;66303.63;;;8.13;100.00
46614;BME280;32338;50.430;6.806;2023-04-15T08:54:24;66304.69;;;8.06;100.00
46614;BME280;32338;50.430;6.806;2023-04-15T08:56:52;66286.75;;;7.97;100.00
46614;BME280;32338;50.430;6.806;2023-04-15T08:59:19;66309.19;;;8.10;100.00
46614;BME280;32338;50.430;6.806;2023-04-15T09:01:47;66305.09;;;8.11;100.00
46614;BME280;32338;50.430;6.806;2023-04-15T09:04:15;66317.28;;;8.20;100.00
46614;BME280;32338;50.430;6.806;2023-04-15T09:06:42;66314.84;;;8.23;100.00
46614;BME280;32338;50.430;6.806;2023-04-15T09:09:11;66324.22;;;8.29;100.00
46614;BME280;32338;50.430;6.806;2023-04-15T09:11:38;66333.97;;;8.40;100.00
46614;BME280;32338;50.430;6.806;2023-04-15T09:14:05;66363.63;;;8.65;100.00
46614;BME280;32338;50.430;6.806;2023-04-15T09:16:54;66363.81;;;8.68;100.00
46614;BME280;32338;50.430;6.806;2023-04-15T09:19:22;66373.72;;;8.74;100.00
46614;BME280;32338;50.430;6.806;2023-04-15T09:21:49;66376.53;;;8.77;100.00
46614;BME280;32338;50.430;6.806;2023-04-15T09:24:18;66374.28;;;8.75;100.00
46614;BME280;32338;50.430;6.806;2023-04-15T09:26:44;66367.75;;;8.71;100.00
46614;BME280;32338;50.430;6.806;2023-04-15T09:29:11;66382.38;;;8.85;100.00
46614;BME280;32338;50.430;6.806;2023-04-15T09:31:39;66402.97;;;9.01;100.00
46614;BME280;32338;50.430;6.806;2023-04-15T09:34:07;66397.19;;;9.01;100.00
46614;BME280;32338;50.430;6.806;2023-04-15T09:36:52;66398.31;;;9.02;100.00
46614;BME280;32338;50.430;6.806;2023-04-15T09:39:20;66414.06;;;9.09;100.00
46614;BME280;32338;50.430;6.806;2023-04-15T09:42:03;66418.59;;;9.20;100.00
46614;BME280;32338;50.430;6.806;2023-04-15T09:44:30;66423.06;;;9.24;100.00
46614;BME280;32338;50.430;6.806;2023-04-15T09:46:56;66450.25;;;9.45;100.00
46614;BME280;32338;50.430;6.806;2023-04-15T09:49:23;66432.25;;;9.28;100.00
46614;BME280;32338;50.430;6.806;2023-04-15T09:51:49;66412.34;;;9.07;98.28
46614;BME280;32338;50.430;6.806;2023-04-15T09:54:18;66385.19;;;8.87;99.98
46614;BME280;32338;50.430;6.806;2023-04-15T09:56:47;66397.34;;;8.96;100.00
46614;BME280;32338;50.430;6.806;2023-04-15T09:59:14;66406.38;;;9.04;100.00
46614;BME280;32338;50.430;6.806;2023-04-15T10:01:41;66407.13;;;9.07;100.00
46614;BME280;32338;50.430;6.806;2023-04-15T10:04:08;66419.09;;;9.14;100.00
46614;BME280;32338;50.430;6.806;2023-04-15T10:06:35;66426.81;;;9.25;100.00
46614;BME280;32338;50.430;6.806;2023-04-15T10:09:02;66427.38;;;9.26;100.00
46614;BME280;32338;50.430;6.806;2023-04-15T10:11:32;66454.75;;;9.49;100.00
46614;BME280;32338;50.430;6.806;2023-04-15T10:14:00;66473.91;;;9.66;100.00
46614;BME280;32338;50.430;6.806;2023-04-15T10:16:28;66479.16;;;9.73;100.00
46614;BME280;32338;50.430;6.806;2023-04-15T10:19:00;66476.94;;;9.71;100.00
46614;BME280;32338;50.430;6.806;2023-04-15T10:21:27;66478.63;;;9.73;100.00
46614;BME280;32338;50.430;6.806;2023-04-15T10:23:57;66483.13;;;9.77;100.00
46614;BME280;32338;50.430;6.806;2023-04-15T10:26:25;66479.16;;;9.73;100.00
46614;BME280;32338;50.430;6.806;2023-04-15T10:28:52;66471.84;;;9.67;100.00
46614;BME280;32338;50.430;6.806;2023-04-15T10:31:21;66469.78;;;9.67;100.00
46614;BME280;32338;50.430;6.806;2023-04-15T10:33:49;66463.78;;;9.57;100.00
46614;BME280;32338;50.430;6.806;2023-04-15T10:36:17;66462.66;;;9.56;100.00
46614;BME280;32338;50.430;6.806;2023-04-15T10:38:45;66471.66;;;9.64;100.00
46614;BME280;32338;50.430;6.806;2023-04-15T10:41:13;66490.22;;;9.81;100.00
46614;BME280;32338;50.430;6.806;2023-04-15T10:43:44;66526.47;;;10.17;100.00
46614;BME280;32338;50.430;6.806;2023-04-15T10:46:11;66528.31;;;10.14;100.00
46614;BME280;32338;50.430;6.806;2023-04-15T10:48:48;66539.81;;;10.27;100.00
46614;BME280;32338;50.430;6.806;2023-04-15T10:51:15;66560.84;;;10.48;100.00
46614;BME280;32338;50.430;6.806;2023-04-15T10:53:43;66573.25;;;10.60;100.00
46614;BME280;32338;50.430;6.806;2023-04-15T10:56:09;66565.94;;;10.53;100.00
46614;BME280;32338;50.430;6.806;2023-04-15T10:58:42;66574.75;;;10.59;100.00
46614;BME280;32338;50.430;6.806;2023-04-15T11:01:09;66559.53;;;10.45;100.00
46614;BME280;32338;50.430;6.806;2023-04-15T11:03:37;66552.56;;;10.36;100.00
46614;BME280;32338;50.430;6.806;2023-04-15T11:06:06;66543.38;;;10.32;100.00
46614;BME280;32338;50.430;6.806;2023-04-15T11:08:52;66547.88;;;10.36;100.00
46614;BME280;32338;50.430;6.806;2023-04-15T11:11:19;66549.03;;;10.37;100.00
46614;BME280;32338;50.430;6.806;2023-04-15T11:13:50;66554.66;;;10.43;97.58
46614;BME280;32338;50.430;6.806;2023-04-15T11:16:17;66568.94;;;10.58;96.41
46614;BME280;32338;50.430;6.806;2023-04-15T11:18:52;66585.09;;;10.70;100.00
46614;BME280;32338;50.430;6.806;2023-04-15T11:21:23;66599.53;;;10.81;100.00
46614;BME280;32338;50.430;6.806;2023-04-15T11:23:50;66626.59;;;11.06;97.72
46614;BME280;32338;50.430;6.806;2023-04-15T11:26:16;66633.56;;;11.15;96.40
46614;BME280;32338;50.430;6.806;2023-04-15T11:28:44;66638.06;;;11.19;88.31
46614;BME280;32338;50.430;6.806;2023-04-15T11:31:12;66639.75;;;11.21;93.29
46614;BME280;32338;50.430;6.806;2023-04-15T11:33:46;66621.34;;;11.06;90.18
46614;BME280;32338;50.430;6.806;2023-04-15T11:36:13;66622.84;;;11.05;96.17
46614;BME280;32338;50.430;6.806;2023-04-15T11:38:45;66612.13;;;10.95;94.71
46614;BME280;32338;50.430;6.806;2023-04-15T11:41:12;66637.88;;;11.16;100.00
46614;BME280;32338;50.430;6.806;2023-04-15T11:43:39;66636.38;;;11.17;90.34
46614;BME280;32338;50.430;6.806;2023-04-15T11:46:05;66650.09;;;11.32;100.00
46614;BME280;32338;50.430;6.806;2023-04-15T11:48:33;66667.78;;;11.51;100.00
46614;BME280;32338;50.430;6.806;2023-04-15T11:51:02;66664.97;;;11.48;100.00
46614;BME280;32338;50.430;6.806;2023-04-15T11:53:36;66651.97;;;11.36;100.00
46614;BME280;32338;50.430;6.806;2023-04-15T11:56:06;66687.09;;;11.57;100.00
46614;BME280;32338;50.430;6.806;2023-04-15T11:58:34;66719.84;;;11.94;99.33
46614;BME280;32338;50.430;6.806;2023-04-15T12:01:03;66735.09;;;12.08;100.00
46614;BME280;32338;50.430;6.806;2023-04-15T12:03:32;66752.56;;;12.24;100.00
46614;BME280;32338;50.430;6.806;2023-04-15T12:06:05;66743.00;;;12.15;100.00
46614;BME280;32338;50.430;6.806;2023-04-15T12:08:58;66709.13;;;11.84;93.56
46614;BME280;32338;50.430;6.806;2023-04-15T12:11:39;66673.59;;;11.51;93.83
46614;BME280;32338;50.430;6.806;2023-04-15T12:14:10;66625.66;;;11.08;96.81
46614;BME280;32338;50.430;6.806;2023-04-15T12:16:39;66645.56;;;11.21;100.00
46614;BME280;32338;50.430;6.806;2023-04-15T12:19:08;66638.44;;;11.17;100.00
46614;BME280;32338;50.430;6.806;2023-04-15T12:21:36;66629.81;;;11.14;100.00
46614;BME280;32338;50.430;6.806;2023-04-15T12:24:05;66625.47;;;11.05;100.00
46614;BME280;32338;50.430;6.806;2023-04-15T12:26:36;66636.94;;;11.18;100.00
46614;BME280;32338;50.430;6.806;2023-04-15T12:29:04;66634.69;;;11.16;100.00
46614;BME280;32338;50.430;6.806;2023-04-15T12:31:32;66635.06;;;11.14;100.00
46614;BME280;32338;50.430;6.806;2023-04-15T12:33:59;66602.53;;;10.86;100.00
46614;BME280;32338;50.430;6.806;2023-04-15T12:36:26;66629.41;;;11.09;100.00
46614;BME280;32338;50.430;6.806;2023-04-15T12:38:54;66620.03;;;11.02;100.00
46614;BME280;32338;50.430;6.806;2023-04-15T12:41:21;66632.44;;;11.14;100.00
46614;BME280;32338;50.430;6.806;2023-04-15T12:43:49;66621.16;;;11.03;100.00
46614;BME280;32338;50.430;6.806;2023-04-15T12:46:16;66642.59;;;11.23;100.00
46614;BME280;32338;50.430;6.806;2023-04-15T12:48:43;66625.28;;;11.10;100.00
46614;BME280;32338;50.430;6.806;2023-04-15T12:51:09;66612.31;;;10.98;100.00
46614;BME280;32338;50.430;6.806;2023-04-15T12:53:36;66609.88;;;10.93;100.00
46614;BME280;32338;50.430;6.806;2023-04-15T12:56:03;66609.31;;;10.93;100.00
46614;BME280;32338;50.430;6.806;2023-04-15T12:58:30;66629.06;;;11.11;100.00